createdAt,value
2022-08-28T00:00:43.034Z,21.10
2022-08-28T00:03:13.103Z,21.10
2022-08-28T00:05:41.645Z,21.10
2022-08-28T00:08:12.888Z,21.10
2022-08-28T00:10:40.826Z,21.00
2022-08-28T00:13:13.968Z,21.00
2022-08-28T00:15:41.740Z,21.00
2022-08-28T00:18:09.132Z,21.00
2022-08-28T00:20:39.820Z,20.90
2022-08-28T00:23:07.859Z,20.90
2022-08-28T00:25:36.143Z,20.90
2022-08-28T00:28:10.206Z,20.90
2022-08-28T00:30:51.879Z,20.80
2022-08-28T00:33:29.961Z,20.80
2022-08-28T00:35:58.033Z,20.70
2022-08-28T00:38:27.660Z,20.70
2022-08-28T00:40:59.656Z,20.60
2022-08-28T00:43:48.327Z,20.60
2022-08-28T00:46:23.727Z,20.50
2022-08-28T00:48:51.425Z,20.50
2022-08-28T00:51:43.290Z,20.50
2022-08-28T00:54:10.615Z,20.50
2022-08-28T00:56:40.096Z,20.40
2022-08-28T00:59:15.685Z,20.40
2022-08-28T01:01:45.545Z,20.40
2022-08-28T01:04:20.041Z,20.30
2022-08-28T01:06:53.556Z,20.30
2022-08-28T01:09:25.135Z,20.30
2022-08-28T01:11:57.940Z,20.30
2022-08-28T01:14:30.325Z,20.20
2022-08-28T01:16:58.415Z,20.20
2022-08-28T01:19:39.870Z,20.20
2022-08-28T01:22:38.583Z,20.20
2022-08-28T01:25:18.904Z,20.20
2022-08-28T01:27:47.152Z,20.10
2022-08-28T01:30:19.679Z,20.10
2022-08-28T01:32:51.832Z,20.10
2022-08-28T01:35:29.677Z,20.10
2022-08-28T01:37:57.731Z,20.00
2022-08-28T01:40:42.950Z,20.00
2022-08-28T01:43:18.333Z,20.00
2022-08-28T01:45:57.817Z,20.00
2022-08-28T01:48:28.339Z,20.00
2022-08-28T01:50:56.051Z,20.00
2022-08-28T01:53:32.589Z,20.00
2022-08-28T01:56:09.662Z,20.00
2022-08-28T01:58:41.112Z,20.00
2022-08-28T02:01:14.565Z,20.00
2022-08-28T02:03:46.097Z,20.00
2022-08-28T02:06:15.713Z,20.00
2022-08-28T02:08:43.065Z,20.00
2022-08-28T02:11:10.904Z,19.90
2022-08-28T02:13:40.670Z,20.00
2022-08-28T02:16:10.813Z,20.00
2022-08-28T02:18:38.350Z,20.00
2022-08-28T02:21:08.340Z,20.00
2022-08-28T02:23:39.953Z,20.00
2022-08-28T02:26:13.260Z,20.00
2022-08-28T02:28:41.277Z,20.00
2022-08-28T02:31:09.666Z,20.00
2022-08-28T02:33:43.717Z,20.00
2022-08-28T02:36:13.432Z,20.00
2022-08-28T02:38:40.767Z,20.00
2022-08-28T02:41:08.736Z,20.00
2022-08-28T02:43:36.293Z,20.00
2022-08-28T02:46:04.953Z,20.00
2022-08-28T02:48:35.607Z,19.90
2022-08-28T02:51:08.457Z,19.90
2022-08-28T02:53:39.562Z,19.90
2022-08-28T02:56:13.311Z,19.90
2022-08-28T02:58:40.927Z,19.90
2022-08-28T03:01:12.078Z,19.90
2022-08-28T03:03:41.545Z,19.90
2022-08-28T03:06:13.615Z,19.90
2022-08-28T03:08:42.466Z,19.90
2022-08-28T03:11:09.858Z,19.90
2022-08-28T03:13:37.014Z,19.90
2022-08-28T03:16:08.513Z,19.90
2022-08-28T03:18:35.834Z,19.90
2022-08-28T03:21:04.457Z,19.80
2022-08-28T03:23:32.080Z,19.90
2022-08-28T03:26:14.310Z,19.80
2022-08-28T03:28:52.608Z,19.80
2022-08-28T03:31:24.409Z,19.80
2022-08-28T03:33:53.436Z,19.80
2022-08-28T03:36:25.786Z,19.80
2022-08-28T03:38:56.042Z,19.80
2022-08-28T03:41:25.555Z,19.80
2022-08-28T03:43:52.729Z,19.80
2022-08-28T03:46:24.386Z,19.80
2022-08-28T03:48:53.787Z,19.80
2022-08-28T03:51:29.723Z,19.70
2022-08-28T03:54:02.542Z,19.70
2022-08-28T03:56:31.753Z,19.70
2022-08-28T03:59:05.248Z,19.70
2022-08-28T04:01:33.739Z,19.70
2022-08-28T04:04:02.120Z,19.70
2022-08-28T04:06:29.478Z,19.70
2022-08-28T04:08:59.985Z,19.70
2022-08-28T04:11:28.597Z,19.60
2022-08-28T04:13:55.905Z,19.70
2022-08-28T04:16:23.026Z,19.70
2022-08-28T04:18:53.539Z,19.60
2022-08-28T04:21:23.995Z,19.70
2022-08-28T04:23:55.324Z,19.60
2022-08-28T04:26:26.729Z,19.70
2022-08-28T04:28:56.042Z,19.70
2022-08-28T04:31:31.621Z,19.70
2022-08-28T04:34:05.422Z,19.70
2022-08-28T04:36:35.953Z,19.70
2022-08-28T04:39:06.095Z,19.70
2022-08-28T04:41:33.341Z,19.70
2022-08-28T04:44:00.462Z,19.70
2022-08-28T04:46:31.187Z,19.70
2022-08-28T04:48:59.686Z,19.70
2022-08-28T04:51:28.857Z,19.80
2022-08-28T04:53:57.928Z,19.70
2022-08-28T04:56:26.574Z,19.80
2022-08-28T04:58:57.223Z,19.80
2022-08-28T05:01:25.088Z,19.80
2022-08-28T05:04:00.287Z,19.80
2022-08-28T05:06:30.748Z,19.80
2022-08-28T05:09:01.980Z,19.90
2022-08-28T05:11:34.122Z,19.90
2022-08-28T05:14:09.603Z,19.90
2022-08-28T05:16:48.808Z,19.90
2022-08-28T05:19:18.612Z,19.90
2022-08-28T05:21:47.140Z,19.90
2022-08-28T05:24:14.324Z,19.90
2022-08-28T05:26:48.308Z,19.90
2022-08-28T05:29:19.546Z,20.00
2022-08-28T05:31:47.584Z,20.00
2022-08-28T05:34:15.486Z,20.00
2022-08-28T05:36:43.141Z,20.00
2022-08-28T05:39:11.771Z,20.10
2022-08-28T05:41:42.357Z,20.10
2022-08-28T05:44:12.725Z,20.10
2022-08-28T05:46:43.659Z,20.20
2022-08-28T05:49:11.012Z,20.20
2022-08-28T05:51:42.000Z,20.20
2022-08-28T05:54:10.717Z,20.30
2022-08-28T05:56:40.600Z,20.30
2022-08-28T05:59:17.541Z,20.30
2022-08-28T06:01:48.129Z,20.30
2022-08-28T06:04:25.472Z,20.40
2022-08-28T06:06:53.769Z,20.40
2022-08-28T06:09:30.091Z,20.50
2022-08-28T06:12:01.044Z,20.50
2022-08-28T06:14:32.628Z,20.60
2022-08-28T06:17:00.991Z,20.60
2022-08-28T06:19:31.513Z,20.70
2022-08-28T06:22:04.410Z,20.70
2022-08-28T06:24:35.138Z,20.70
2022-08-28T06:27:02.205Z,20.80
2022-08-28T06:29:30.405Z,20.80
2022-08-28T06:32:02.021Z,20.80
2022-08-28T06:34:30.028Z,20.90
2022-08-28T06:36:57.129Z,20.90
2022-08-28T06:39:24.419Z,20.90
2022-08-28T06:41:51.586Z,21.00
2022-08-28T06:44:21.497Z,21.00
2022-08-28T06:46:52.385Z,21.10
2022-08-28T06:49:19.603Z,21.10
2022-08-28T06:51:47.124Z,21.10
2022-08-28T06:54:21.765Z,21.20
2022-08-28T06:56:51.711Z,21.20
2022-08-28T06:59:19.545Z,21.20
2022-08-28T07:01:46.915Z,21.30
2022-08-28T07:04:14.743Z,21.30
2022-08-28T07:06:46.742Z,21.30
2022-08-28T07:09:14.663Z,21.40
2022-08-28T07:11:46.766Z,21.40
2022-08-28T07:14:14.522Z,21.50
2022-08-28T07:16:42.291Z,21.50
2022-08-28T07:19:12.033Z,21.50
2022-08-28T07:21:44.733Z,21.50
2022-08-28T07:24:17.652Z,21.60
2022-08-28T07:26:46.983Z,21.60
2022-08-28T07:29:14.960Z,21.60
2022-08-28T07:31:49.222Z,21.70
2022-08-28T07:34:18.922Z,21.70
2022-08-28T07:36:47.026Z,21.80
2022-08-28T07:39:18.354Z,21.80
2022-08-28T07:41:47.666Z,21.90
2022-08-28T07:44:36.812Z,21.90
2022-08-28T07:47:05.917Z,22.00
2022-08-28T07:49:34.857Z,22.00
2022-08-28T07:52:09.521Z,22.10
2022-08-28T07:54:37.692Z,22.20
2022-08-28T07:57:06.287Z,22.20
2022-08-28T07:59:37.000Z,22.30
2022-08-28T08:02:05.588Z,22.30
2022-08-28T08:04:36.097Z,22.40
2022-08-28T08:07:04.974Z,22.40
2022-08-28T08:09:36.423Z,22.50
2022-08-28T08:12:05.663Z,22.50
2022-08-28T08:14:33.303Z,22.50
2022-08-28T08:17:02.497Z,22.50
2022-08-28T08:19:29.703Z,22.50
2022-08-28T08:22:00.440Z,22.50
2022-08-28T08:24:30.297Z,22.40
2022-08-28T08:27:01.242Z,22.40
2022-08-28T08:29:32.625Z,22.30
2022-08-28T08:32:07.984Z,22.30
2022-08-28T08:34:38.730Z,22.30
2022-08-28T08:37:06.714Z,22.30
2022-08-28T08:39:36.510Z,22.30
2022-08-28T08:42:09.329Z,22.30
2022-08-28T08:44:48.116Z,22.30
2022-08-28T08:47:49.378Z,22.40
2022-08-28T08:50:31.405Z,22.30
2022-08-28T08:53:13.435Z,22.20
2022-08-28T08:55:52.253Z,22.00
2022-08-28T08:58:32.835Z,21.90
2022-08-28T09:01:32.966Z,21.70
2022-08-28T09:04:56.691Z,21.60
2022-08-28T09:07:53.286Z,21.60
2022-08-28T09:10:20.693Z,21.50
2022-08-28T09:13:06.330Z,21.50
2022-08-28T09:15:42.678Z,21.40
2022-08-28T09:18:28.554Z,21.30
2022-08-28T09:20:59.968Z,21.10
2022-08-28T09:23:30.030Z,21.10
2022-08-28T09:26:12.566Z,21.20
2022-08-28T09:28:44.742Z,21.20
2022-08-28T09:31:31.675Z,21.30
2022-08-28T09:34:17.079Z,21.30
2022-08-28T09:36:44.364Z,21.30
2022-08-28T09:39:22.010Z,21.30
2022-08-28T09:42:32.561Z,21.30
2022-08-28T09:45:09.087Z,21.30
2022-08-28T09:47:54.656Z,21.30
2022-08-28T09:50:42.481Z,21.30
2022-08-28T09:53:09.408Z,21.40
2022-08-28T09:56:11.040Z,21.50
2022-08-28T09:59:04.913Z,21.50
2022-08-28T10:01:50.171Z,21.60
2022-08-28T10:04:23.279Z,21.60
2022-08-28T10:07:31.159Z,21.60
2022-08-28T10:10:10.063Z,21.60
2022-08-28T10:13:01.584Z,21.60
2022-08-28T10:15:46.608Z,21.70
2022-08-28T10:18:40.422Z,21.60
2022-08-28T10:21:50.752Z,21.70
2022-08-28T10:24:45.749Z,21.70
2022-08-28T10:27:45.076Z,21.70
2022-08-28T10:30:20.807Z,21.80
2022-08-28T10:33:16.672Z,21.70
2022-08-28T10:36:23.155Z,21.70
2022-08-28T10:39:19.382Z,21.70
2022-08-28T10:41:56.707Z,21.80
2022-08-28T10:44:49.770Z,21.90
2022-08-28T10:47:22.068Z,22.00
2022-08-28T10:49:55.043Z,22.20
2022-08-28T10:52:42.039Z,22.20
2022-08-28T10:55:25.372Z,22.30
2022-08-28T10:58:06.201Z,22.50
2022-08-28T11:00:57.126Z,22.50
2022-08-28T11:03:34.768Z,22.60
2022-08-28T11:06:31.394Z,22.70
2022-08-28T11:09:26.282Z,22.80
2022-08-28T11:12:03.060Z,22.90
2022-08-28T11:14:47.593Z,23.10
2022-08-28T11:17:25.429Z,23.10
2022-08-28T11:20:27.102Z,23.10
2022-08-28T11:23:20.842Z,23.10
2022-08-28T11:25:55.024Z,23.10
2022-08-28T11:28:25.831Z,23.10
2022-08-28T11:30:58.960Z,23.10
2022-08-28T11:33:49.783Z,23.20
2022-08-28T11:36:19.974Z,23.20
2022-08-28T11:38:56.168Z,23.40
2022-08-28T11:41:32.083Z,23.40
2022-08-28T11:44:11.191Z,23.60
2022-08-28T11:46:47.572Z,23.70
2022-08-28T11:49:26.771Z,23.70
2022-08-28T11:52:34.086Z,23.80
2022-08-28T11:55:07.019Z,23.90
2022-08-28T11:58:37.598Z,23.90
2022-08-28T12:01:11.898Z,24.10
2022-08-28T12:04:03.860Z,24.20
2022-08-28T12:07:13.111Z,24.20
2022-08-28T12:09:49.851Z,24.20
2022-08-28T12:12:23.188Z,24.10
2022-08-28T12:14:56.310Z,24.00
2022-08-28T12:17:23.973Z,23.90
2022-08-28T12:20:31.092Z,23.90
2022-08-28T12:23:03.029Z,24.00
2022-08-28T12:25:42.346Z,24.00
2022-08-28T12:29:01.504Z,24.20
2022-08-28T12:32:11.665Z,24.40
2022-08-28T12:34:57.348Z,24.60
2022-08-28T12:37:51.561Z,24.80
2022-08-28T12:40:37.894Z,24.90
2022-08-28T12:43:15.472Z,25.00
2022-08-28T12:45:49.971Z,25.10
2022-08-28T12:48:25.919Z,25.30
2022-08-28T12:51:03.371Z,25.40
2022-08-28T12:53:53.380Z,25.50
2022-08-28T12:56:24.269Z,25.60
2022-08-28T12:58:54.807Z,25.70
2022-08-28T13:01:32.935Z,25.80
2022-08-28T13:04:26.341Z,25.80
2022-08-28T13:07:11.643Z,25.80
2022-08-28T13:09:51.499Z,25.80
2022-08-28T13:12:44.106Z,25.80
2022-08-28T13:16:09.331Z,25.80
2022-08-28T13:18:55.367Z,25.80
2022-08-28T13:21:34.433Z,25.90
2022-08-28T13:24:22.295Z,26.00
2022-08-28T13:27:09.571Z,26.10
2022-08-28T13:30:20.028Z,26.10
2022-08-28T13:33:04.793Z,26.10
2022-08-28T13:35:37.387Z,26.30
2022-08-28T13:38:12.507Z,26.40
2022-08-28T13:41:02.562Z,26.50
2022-08-28T13:43:45.974Z,26.70
2022-08-28T13:46:13.965Z,26.90
2022-08-28T13:48:41.206Z,27.00
2022-08-28T13:51:18.910Z,27.00
2022-08-28T13:53:49.705Z,27.10
2022-08-28T13:56:17.826Z,27.20
2022-08-28T13:58:44.909Z,27.30
2022-08-28T14:01:43.916Z,27.40
2022-08-28T14:04:13.120Z,27.70
2022-08-28T14:06:44.088Z,27.80
2022-08-28T14:09:17.720Z,28.00
2022-08-28T14:11:47.047Z,28.10
2022-08-28T14:14:14.698Z,28.30
2022-08-28T14:16:42.644Z,28.20
2022-08-28T14:19:10.499Z,27.90
2022-08-28T14:21:40.921Z,27.60
2022-08-28T14:24:08.799Z,27.20
2022-08-28T14:26:36.459Z,26.80
2022-08-28T14:29:10.542Z,26.60
2022-08-28T14:31:40.902Z,26.30
2022-08-28T14:34:15.031Z,26.10
2022-08-28T14:36:45.918Z,26.00
2022-08-28T14:39:13.807Z,25.80
2022-08-28T14:41:47.016Z,25.80
2022-08-28T14:44:15.343Z,25.70
2022-08-28T14:46:46.850Z,25.70
2022-08-28T14:49:21.877Z,25.60
2022-08-28T14:51:49.980Z,25.50
2022-08-28T14:54:23.371Z,25.40
2022-08-28T14:56:52.160Z,25.40
2022-08-28T14:59:29.406Z,25.40
2022-08-28T15:02:00.048Z,25.30
2022-08-28T15:04:37.922Z,25.20
2022-08-28T15:07:10.991Z,25.20
2022-08-28T15:09:41.483Z,25.20
2022-08-28T15:12:12.149Z,25.10
2022-08-28T15:14:39.447Z,25.10
2022-08-28T15:17:08.417Z,25.10
2022-08-28T15:19:38.942Z,25.10
2022-08-28T15:22:06.108Z,25.10
2022-08-28T15:24:34.628Z,25.10
2022-08-28T15:27:02.412Z,25.10
2022-08-28T15:29:30.225Z,25.10
2022-08-28T15:31:58.777Z,25.10
2022-08-28T15:34:28.453Z,25.00
2022-08-28T15:36:58.083Z,25.00
2022-08-28T15:39:46.542Z,25.00
2022-08-28T15:42:14.476Z,24.90
2022-08-28T15:44:42.472Z,24.90
2022-08-28T15:47:15.351Z,24.90
2022-08-28T15:49:48.627Z,24.90
2022-08-28T15:52:18.722Z,24.80
2022-08-28T15:54:46.355Z,24.70
2022-08-28T15:57:13.431Z,24.70
2022-08-28T15:59:49.516Z,24.60
2022-08-28T16:02:21.441Z,24.50
2022-08-28T16:04:49.116Z,24.40
2022-08-28T16:07:17.934Z,24.30
2022-08-28T16:09:45.189Z,24.20
2022-08-28T16:12:12.496Z,24.20
2022-08-28T16:14:39.644Z,24.00
2022-08-28T16:17:11.025Z,24.00
2022-08-28T16:19:42.730Z,24.00
2022-08-28T16:22:12.479Z,24.00
2022-08-28T16:24:39.664Z,23.90
2022-08-28T16:27:09.667Z,23.90
2022-08-28T16:29:40.549Z,23.90
2022-08-28T16:32:07.946Z,23.90
2022-08-28T16:34:36.944Z,23.90
2022-08-28T16:37:04.533Z,23.80
2022-08-28T16:39:31.751Z,23.80
2022-08-28T16:41:59.075Z,23.80
2022-08-28T16:44:26.735Z,23.70
2022-08-28T16:46:57.005Z,23.60
2022-08-28T16:49:27.660Z,23.60
2022-08-28T16:51:58.327Z,23.50
2022-08-28T16:54:29.475Z,23.40
2022-08-28T16:56:59.823Z,23.40
2022-08-28T16:59:30.235Z,23.20
2022-08-28T17:01:58.040Z,23.10
2022-08-28T17:04:25.770Z,23.00
2022-08-28T17:06:52.944Z,23.00
2022-08-28T17:09:22.722Z,22.90
2022-08-28T17:11:52.244Z,22.90
2022-08-28T17:14:23.665Z,22.80
2022-08-28T17:16:51.764Z,22.80
2022-08-28T17:19:20.880Z,22.70
2022-08-28T17:22:06.288Z,22.60
2022-08-28T17:24:33.426Z,22.50
2022-08-28T17:27:05.415Z,22.40
2022-08-28T17:29:35.205Z,22.40
2022-08-28T17:32:07.914Z,22.20
2022-08-28T17:34:36.135Z,22.20
2022-08-28T17:37:04.417Z,22.10
2022-08-28T17:39:31.865Z,22.10
2022-08-28T17:42:00.158Z,22.00
2022-08-28T17:44:27.544Z,22.00
2022-08-28T17:46:55.029Z,21.90
2022-08-28T17:49:23.185Z,21.90
2022-08-28T17:51:51.182Z,21.80
2022-08-28T17:54:21.939Z,21.80
2022-08-28T17:56:49.840Z,21.70
2022-08-28T17:59:18.824Z,21.70
2022-08-28T18:01:47.602Z,21.60
2022-08-28T18:04:23.930Z,21.60
2022-08-28T18:06:54.937Z,21.50
2022-08-28T18:09:24.398Z,21.50
2022-08-28T18:11:53.275Z,21.50
2022-08-28T18:14:21.822Z,21.40
2022-08-28T18:16:49.477Z,21.40
2022-08-28T18:19:17.063Z,21.30
2022-08-28T18:21:45.330Z,21.30
2022-08-28T18:24:13.418Z,21.30
2022-08-28T18:26:43.015Z,21.20
2022-08-28T18:29:11.364Z,21.20
2022-08-28T18:31:38.933Z,21.20
2022-08-28T18:34:11.215Z,21.10
2022-08-28T18:36:41.780Z,21.10
2022-08-28T18:39:13.213Z,21.10
2022-08-28T18:41:44.436Z,21.10
2022-08-28T18:44:14.821Z,21.10
2022-08-28T18:46:45.545Z,21.00
2022-08-28T18:49:16.386Z,21.00
2022-08-28T18:51:45.341Z,21.00
2022-08-28T18:54:17.364Z,21.00
2022-08-28T18:56:51.580Z,20.90
2022-08-28T18:59:20.097Z,21.00
2022-08-28T19:01:47.648Z,20.90
2022-08-28T19:04:15.503Z,20.90
2022-08-28T19:06:43.067Z,20.80
2022-08-28T19:09:20.195Z,20.80
2022-08-28T19:11:49.065Z,20.80
2022-08-28T19:14:23.562Z,20.80
2022-08-28T19:16:51.117Z,20.70
2022-08-28T19:19:18.693Z,20.70
2022-08-28T19:21:46.446Z,20.70
2022-08-28T19:24:17.953Z,20.80
2022-08-28T19:26:46.557Z,20.70
2022-08-28T19:29:15.370Z,20.70
2022-08-28T19:31:46.883Z,20.70
2022-08-28T19:34:14.731Z,20.80
2022-08-28T19:36:42.352Z,20.70
2022-08-28T19:39:10.070Z,20.70
2022-08-28T19:41:38.143Z,20.70
2022-08-28T19:44:07.108Z,20.70
2022-08-28T19:46:38.203Z,20.70
2022-08-28T19:49:07.837Z,20.70
2022-08-28T19:51:40.240Z,20.70
2022-08-28T19:54:14.541Z,20.70
2022-08-28T19:56:42.382Z,20.70
2022-08-28T19:59:10.898Z,20.60
2022-08-28T20:01:42.012Z,20.60
2022-08-28T20:04:13.678Z,20.60
2022-08-28T20:06:41.450Z,20.60
2022-08-28T20:09:12.703Z,20.60
2022-08-28T20:11:42.566Z,20.60
2022-08-28T20:14:10.034Z,20.60
2022-08-28T20:16:44.910Z,20.60
2022-08-28T20:19:16.187Z,20.50
2022-08-28T20:21:46.340Z,20.50
2022-08-28T20:24:20.465Z,20.50
2022-08-28T20:26:52.367Z,20.50
2022-08-28T20:29:24.270Z,20.50
2022-08-28T20:31:58.003Z,20.50
2022-08-28T20:34:29.102Z,20.50
2022-08-28T20:36:56.291Z,20.50
2022-08-28T20:39:23.517Z,20.40
2022-08-28T20:41:53.486Z,20.40
2022-08-28T20:44:22.818Z,20.40
2022-08-28T20:46:51.412Z,20.40
2022-08-28T20:49:22.118Z,20.40
2022-08-28T20:51:52.863Z,20.40
2022-08-28T20:54:37.310Z,20.30
2022-08-28T20:57:09.290Z,20.30
2022-08-28T20:59:40.412Z,20.40
2022-08-28T21:02:18.743Z,20.30
2022-08-28T21:04:46.972Z,20.30
2022-08-28T21:07:20.336Z,20.30
2022-08-28T21:10:07.065Z,20.30
2022-08-28T21:12:40.024Z,20.30
2022-08-28T21:15:12.615Z,20.30
2022-08-28T21:17:41.150Z,20.20
2022-08-28T21:20:13.368Z,20.20
2022-08-28T21:22:41.567Z,20.20
2022-08-28T21:25:11.056Z,20.20
2022-08-28T21:27:38.843Z,20.20
2022-08-28T21:30:08.768Z,20.20
2022-08-28T21:32:38.919Z,20.20
2022-08-28T21:35:12.854Z,20.10
2022-08-28T21:37:42.047Z,20.20
2022-08-28T21:40:13.015Z,20.20
2022-08-28T21:42:41.018Z,20.20
2022-08-28T21:45:12.553Z,20.20
2022-08-28T21:47:41.554Z,20.10
2022-08-28T21:50:10.818Z,20.10
2022-08-28T21:52:38.464Z,20.10
2022-08-28T21:55:11.176Z,20.10
2022-08-28T21:57:38.903Z,20.10
2022-08-28T22:00:19.768Z,20.10
2022-08-28T22:02:47.766Z,20.10
2022-08-28T22:05:18.380Z,20.10
2022-08-28T22:07:46.130Z,20.20
2022-08-28T22:10:17.928Z,20.10
2022-08-28T22:12:45.116Z,20.10
2022-08-28T22:15:18.811Z,20.10
2022-08-28T22:17:45.934Z,20.10
2022-08-28T22:20:16.366Z,20.10
2022-08-28T22:23:02.073Z,20.10
2022-08-28T22:25:29.573Z,20.10
2022-08-28T22:27:56.738Z,20.10
2022-08-28T22:30:24.171Z,20.10
2022-08-28T22:32:51.424Z,20.10
2022-08-28T22:35:19.715Z,20.10
2022-08-28T22:37:51.383Z,20.10
2022-08-28T22:40:22.812Z,20.10
2022-08-28T22:42:50.988Z,20.10
2022-08-28T22:45:19.320Z,20.10
2022-08-28T22:47:49.714Z,20.10
2022-08-28T22:50:20.523Z,20.00
2022-08-28T22:52:49.722Z,20.10
2022-08-28T22:55:21.704Z,20.10
2022-08-28T22:57:49.146Z,20.00
2022-08-28T23:00:21.521Z,20.00
2022-08-28T23:02:48.849Z,20.00
2022-08-28T23:05:16.593Z,20.00
2022-08-28T23:07:44.227Z,20.00
2022-08-28T23:10:13.085Z,20.00
2022-08-28T23:12:40.635Z,20.00
2022-08-28T23:15:15.555Z,20.00
2022-08-28T23:17:43.729Z,20.00
2022-08-28T23:20:16.821Z,20.00
2022-08-28T23:22:45.561Z,20.00
2022-08-28T23:25:21.576Z,20.00
2022-08-28T23:27:49.786Z,20.00
2022-08-28T23:30:18.917Z,20.00
2022-08-28T23:32:46.716Z,19.90
2022-08-28T23:35:15.452Z,19.90
2022-08-28T23:37:46.772Z,20.00
2022-08-28T23:40:22.950Z,19.90
2022-08-28T23:42:51.820Z,20.00
2022-08-28T23:45:22.987Z,19.90
2022-08-28T23:47:53.578Z,19.90
2022-08-28T23:50:24.863Z,19.90
2022-08-28T23:52:52.361Z,19.90
2022-08-28T23:55:20.968Z,19.90
2022-08-28T23:57:52.262Z,19.90
